createdAt,value
2023-04-26T00:00:32.924Z,4.42
2023-04-26T00:01:32.935Z,4.42
2023-04-26T00:02:33.137Z,4.30
2023-04-26T00:03:33.298Z,4.37
2023-04-26T00:04:33.131Z,4.33
2023-04-26T00:05:33.072Z,4.34
2023-04-26T00:06:33.036Z,4.36
2023-04-26T00:07:33.050Z,4.30
2023-04-26T00:08:33.074Z,4.33
2023-04-26T00:09:33.083Z,4.36
2023-04-26T00:10:33.100Z,4.29
2023-04-26T00:11:33.123Z,4.29
2023-04-26T00:12:33.147Z,4.24
2023-04-26T00:13:33.185Z,4.30
2023-04-26T00:14:33.176Z,4.30
2023-04-26T00:15:33.195Z,4.15
2023-04-26T00:16:33.220Z,4.15
2023-04-26T00:17:33.291Z,4.22
2023-04-26T00:18:33.253Z,4.16
2023-04-26T00:19:33.268Z,4.09
2023-04-26T00:20:33.288Z,4.15
2023-04-26T00:21:33.305Z,4.23
2023-04-26T00:22:33.321Z,4.14
2023-04-26T00:23:33.351Z,4.08
2023-04-26T00:24:33.358Z,4.16
2023-04-26T00:25:33.380Z,4.15
2023-04-26T00:26:33.396Z,4.06
2023-04-26T00:27:33.423Z,4.08
2023-04-26T00:28:33.431Z,4.16
2023-04-26T00:29:33.454Z,4.11
2023-04-26T00:30:33.476Z,4.09
2023-04-26T00:31:33.528Z,4.04
2023-04-26T00:32:33.593Z,3.97
2023-04-26T00:33:33.543Z,4.02
2023-04-26T00:34:33.543Z,3.98
2023-04-26T00:35:33.587Z,4.06
2023-04-26T00:36:33.579Z,4.04
2023-04-26T00:37:33.608Z,4.05
2023-04-26T00:38:33.617Z,3.98
2023-04-26T00:39:33.636Z,4.05
2023-04-26T00:40:33.657Z,3.96
2023-04-26T00:41:33.687Z,4.02
2023-04-26T00:42:33.694Z,3.94
2023-04-26T00:43:33.734Z,3.97
2023-04-26T00:44:33.726Z,3.96
2023-04-26T00:45:33.822Z,3.97
2023-04-26T00:46:33.765Z,3.98
2023-04-26T00:47:33.823Z,3.98
2023-04-26T00:48:33.805Z,3.97
2023-04-26T00:49:33.824Z,3.96
2023-04-26T00:50:33.841Z,3.84
2023-04-26T00:51:33.853Z,3.93
2023-04-26T00:52:33.883Z,3.88
2023-04-26T00:53:33.889Z,3.83
2023-04-26T00:54:33.908Z,3.93
2023-04-26T00:55:33.952Z,3.90
2023-04-26T00:56:33.944Z,3.86
2023-04-26T00:57:33.964Z,3.88
2023-04-26T00:58:33.984Z,3.79
2023-04-26T00:59:34.000Z,3.86
2023-04-26T01:00:34.017Z,3.78
2023-04-26T01:01:34.132Z,3.79
2023-04-26T01:02:34.112Z,3.75
2023-04-26T01:03:34.233Z,3.79
2023-04-26T01:04:34.129Z,3.80
2023-04-26T01:05:34.104Z,3.78
2023-04-26T01:06:34.126Z,3.83
2023-04-26T01:07:34.141Z,3.68
2023-04-26T01:08:34.161Z,3.73
2023-04-26T01:09:34.179Z,3.69
2023-04-26T01:10:34.206Z,3.68
2023-04-26T01:11:34.232Z,3.75
2023-04-26T01:12:34.234Z,3.72
2023-04-26T01:13:34.255Z,3.69
2023-04-26T01:14:34.267Z,3.69
2023-04-26T01:15:34.278Z,3.72
2023-04-26T01:16:34.355Z,3.58
2023-04-26T01:17:34.337Z,3.69
2023-04-26T01:18:34.351Z,3.61
2023-04-26T01:19:34.359Z,3.62
2023-04-26T01:20:34.378Z,3.60
2023-04-26T01:21:34.396Z,3.66
2023-04-26T01:22:34.411Z,3.51
2023-04-26T01:23:34.430Z,3.55
2023-04-26T01:24:34.448Z,3.52
2023-04-26T01:25:34.465Z,3.48
2023-04-26T01:26:34.488Z,3.52
2023-04-26T01:27:34.504Z,3.60
2023-04-26T01:28:34.524Z,3.60
2023-04-26T01:29:34.537Z,3.55
2023-04-26T01:30:34.551Z,3.61
2023-04-26T01:31:34.658Z,3.50
2023-04-26T01:32:34.626Z,3.48
2023-04-26T01:33:34.611Z,3.51
2023-04-26T01:34:34.641Z,3.62
2023-04-26T01:35:34.654Z,3.55
2023-04-26T01:36:34.747Z,3.60
2023-04-26T01:37:34.694Z,3.52
2023-04-26T01:38:34.696Z,3.51
2023-04-26T01:39:34.716Z,3.51
2023-04-26T01:40:34.732Z,3.39
2023-04-26T01:41:34.746Z,3.43
2023-04-26T01:42:34.767Z,3.47
2023-04-26T01:43:34.784Z,3.43
2023-04-26T01:44:34.805Z,3.42
2023-04-26T01:45:34.822Z,3.40
2023-04-26T01:46:34.886Z,3.29
2023-04-26T01:47:34.876Z,3.45
2023-04-26T01:48:34.875Z,3.26
2023-04-26T01:49:34.896Z,3.32
2023-04-26T01:50:34.910Z,3.29
2023-04-26T01:51:34.944Z,3.32
2023-04-26T01:52:35.047Z,3.31
2023-04-26T01:53:34.962Z,3.28
2023-04-26T01:54:34.987Z,3.26
2023-04-26T01:55:35.007Z,3.26
2023-04-26T01:56:35.020Z,3.23
2023-04-26T01:57:35.040Z,3.14
2023-04-26T01:58:35.049Z,3.18
2023-04-26T01:59:35.080Z,3.13
2023-04-26T02:00:35.090Z,3.17
2023-04-26T02:01:35.189Z,3.18
2023-04-26T02:02:35.160Z,3.11
2023-04-26T02:03:35.154Z,3.17
2023-04-26T02:04:35.175Z,3.13
2023-04-26T02:05:35.182Z,3.06
2023-04-26T02:06:35.195Z,3.06
2023-04-26T02:07:35.220Z,3.14
2023-04-26T02:08:35.236Z,3.06
2023-04-26T02:09:35.247Z,3.08
2023-04-26T02:10:35.268Z,3.10
2023-04-26T02:11:35.277Z,3.02
2023-04-26T02:12:35.313Z,3.00
2023-04-26T02:13:35.324Z,3.11
2023-04-26T02:14:35.342Z,3.02
2023-04-26T02:15:35.357Z,3.02
2023-04-26T02:16:35.387Z,2.97
2023-04-26T02:17:35.423Z,2.90
2023-04-26T02:18:35.459Z,3.06
2023-04-26T02:19:35.428Z,3.02
2023-04-26T02:20:35.444Z,3.00
2023-04-26T02:21:35.471Z,3.02
2023-04-26T02:22:35.498Z,2.97
2023-04-26T02:23:35.497Z,2.96
2023-04-26T02:24:35.513Z,2.99
2023-04-26T02:25:35.532Z,2.93
2023-04-26T02:26:35.551Z,2.95
2023-04-26T02:27:35.569Z,2.90
2023-04-26T02:28:35.583Z,2.93
2023-04-26T02:29:43.032Z,2.96
2023-04-26T02:30:35.621Z,3.02
2023-04-26T02:31:35.695Z,2.95
2023-04-26T02:32:35.676Z,2.97
2023-04-26T02:33:35.674Z,2.97
2023-04-26T02:34:35.728Z,3.00
2023-04-26T02:35:35.710Z,2.85
2023-04-26T02:36:35.739Z,2.95
2023-04-26T02:37:35.764Z,2.93
2023-04-26T02:38:35.771Z,2.96
2023-04-26T02:39:35.777Z,2.97
2023-04-26T02:40:35.800Z,2.96
2023-04-26T02:41:35.815Z,2.92
2023-04-26T02:42:35.833Z,2.95
2023-04-26T02:43:35.848Z,2.95
2023-04-26T02:44:35.874Z,2.87
2023-04-26T02:45:35.891Z,2.92
2023-04-26T02:46:35.934Z,2.95
2023-04-26T02:47:35.951Z,2.90
2023-04-26T02:48:35.934Z,2.92
2023-04-26T02:49:35.958Z,2.89
2023-04-26T02:50:35.971Z,2.87
2023-04-26T02:51:35.988Z,2.81
2023-04-26T02:52:36.011Z,2.79
2023-04-26T02:53:36.021Z,2.78
2023-04-26T02:54:36.046Z,2.85
2023-04-26T02:55:36.053Z,2.79
2023-04-26T02:56:36.073Z,2.79
2023-04-26T02:57:36.094Z,2.84
2023-04-26T02:58:36.113Z,2.77
2023-04-26T02:59:36.134Z,2.71
2023-04-26T03:00:36.180Z,2.84
2023-04-26T03:01:36.163Z,2.81
2023-04-26T03:02:36.401Z,2.82
2023-04-26T03:03:36.256Z,2.71
2023-04-26T03:04:36.212Z,2.77
2023-04-26T03:05:36.262Z,2.67
2023-04-26T03:06:36.246Z,2.71
2023-04-26T03:07:36.275Z,2.67
2023-04-26T03:08:36.280Z,2.71
2023-04-26T03:09:36.302Z,2.69
2023-04-26T03:10:36.318Z,2.74
2023-04-26T03:11:36.333Z,2.72
2023-04-26T03:12:36.408Z,2.72
2023-04-26T03:13:36.379Z,2.75
2023-04-26T03:14:36.385Z,2.75
2023-04-26T03:15:36.404Z,2.74
2023-04-26T03:16:36.467Z,2.75
2023-04-26T03:17:36.445Z,2.78
2023-04-26T03:18:36.454Z,2.78
2023-04-26T03:19:36.478Z,2.77
2023-04-26T03:20:36.497Z,2.78
2023-04-26T03:21:36.511Z,2.75
2023-04-26T03:22:36.531Z,2.74
2023-04-26T03:23:36.542Z,2.81
2023-04-26T03:24:36.568Z,2.69
2023-04-26T03:25:36.581Z,2.69
2023-04-26T03:26:36.608Z,2.63
2023-04-26T03:27:36.612Z,2.64
2023-04-26T03:28:36.630Z,2.63
2023-04-26T03:29:36.649Z,2.61
2023-04-26T03:30:36.684Z,2.59
2023-04-26T03:31:36.706Z,2.61
2023-04-26T03:32:36.724Z,2.52
2023-04-26T03:33:36.718Z,2.53
2023-04-26T03:34:36.740Z,2.54
2023-04-26T03:35:36.773Z,2.46
2023-04-26T03:36:36.776Z,2.61
2023-04-26T03:37:36.791Z,2.49
2023-04-26T03:38:36.807Z,2.43
2023-04-26T03:39:36.823Z,2.52
2023-04-26T03:40:36.839Z,2.52
2023-04-26T03:41:36.873Z,2.52
2023-04-26T03:42:36.874Z,2.49
2023-04-26T03:43:36.897Z,2.45
2023-04-26T03:44:36.970Z,2.48
2023-04-26T03:45:36.977Z,2.49
2023-04-26T03:46:36.963Z,2.36
2023-04-26T03:47:37.001Z,2.46
2023-04-26T03:48:36.980Z,2.38
2023-04-26T03:49:36.995Z,2.31
2023-04-26T03:50:37.012Z,2.36
2023-04-26T03:51:37.041Z,2.39
2023-04-26T03:52:37.054Z,2.43
2023-04-26T03:53:37.060Z,2.41
2023-04-26T03:54:37.125Z,2.42
2023-04-26T03:55:37.092Z,2.45
2023-04-26T03:56:37.148Z,2.43
2023-04-26T03:57:37.163Z,2.43
2023-04-26T03:58:37.170Z,2.41
2023-04-26T03:59:37.188Z,2.43
2023-04-26T04:00:37.206Z,2.38
2023-04-26T04:01:37.212Z,2.39
2023-04-26T04:02:37.358Z,2.41
2023-04-26T04:03:39.995Z,2.43
2023-04-26T04:04:37.425Z,2.41
2023-04-26T04:05:37.441Z,2.39
2023-04-26T04:06:37.313Z,2.38
2023-04-26T04:07:37.320Z,2.38
2023-04-26T04:08:37.357Z,2.41
2023-04-26T04:09:37.349Z,2.38
2023-04-26T04:10:37.370Z,2.36
2023-04-26T04:11:37.395Z,2.34
2023-04-26T04:12:37.402Z,2.31
2023-04-26T04:13:37.433Z,2.31
2023-04-26T04:14:37.445Z,2.35
2023-04-26T04:15:37.490Z,2.36
2023-04-26T04:16:37.503Z,2.43
2023-04-26T04:17:38.528Z,2.43
2023-04-26T04:18:37.532Z,2.41
2023-04-26T04:19:37.511Z,2.45
2023-04-26T04:20:37.521Z,2.52
2023-04-26T04:21:37.549Z,2.46
2023-04-26T04:22:37.562Z,2.46
2023-04-26T04:23:37.573Z,2.46
2023-04-26T04:24:37.594Z,2.53
2023-04-26T04:25:37.612Z,2.45
2023-04-26T04:26:37.639Z,2.54
2023-04-26T04:27:37.658Z,2.57
2023-04-26T04:28:37.684Z,2.59
2023-04-26T04:29:37.693Z,2.69
2023-04-26T04:30:37.743Z,2.66
2023-04-26T04:31:37.752Z,2.71
2023-04-26T04:32:37.831Z,2.72
2023-04-26T04:33:37.763Z,2.69
2023-04-26T04:34:37.781Z,2.74
2023-04-26T04:35:37.785Z,2.69
2023-04-26T04:36:37.808Z,2.71
2023-04-26T04:37:37.816Z,2.78
2023-04-26T04:38:37.831Z,2.82
2023-04-26T04:39:37.849Z,2.74
2023-04-26T04:40:37.877Z,2.74
2023-04-26T04:41:37.888Z,2.79
2023-04-26T04:42:37.900Z,2.89
2023-04-26T04:43:37.924Z,2.81
2023-04-26T04:44:37.941Z,2.92
2023-04-26T04:45:37.955Z,2.93
2023-04-26T04:46:38.137Z,3.00
2023-04-26T04:47:38.067Z,3.00
2023-04-26T04:48:38.069Z,3.11
2023-04-26T04:49:38.032Z,3.05
2023-04-26T04:50:38.041Z,3.05
2023-04-26T04:51:38.056Z,3.17
2023-04-26T04:52:38.084Z,3.13
2023-04-26T04:53:38.100Z,3.26
2023-04-26T04:54:38.113Z,3.31
2023-04-26T04:55:38.131Z,3.23
2023-04-26T04:56:38.148Z,3.35
2023-04-26T04:57:39.013Z,3.39
2023-04-26T04:58:38.182Z,3.50
2023-04-26T04:59:38.202Z,3.61
2023-04-26T05:00:38.300Z,3.75
2023-04-26T05:01:38.269Z,4.02
2023-04-26T05:02:38.359Z,4.24
2023-04-26T05:03:38.418Z,4.37
2023-04-26T05:04:38.424Z,4.52
2023-04-26T05:05:38.336Z,4.77
2023-04-26T05:06:38.331Z,4.91
2023-04-26T05:07:38.347Z,5.15
2023-04-26T05:08:38.380Z,5.38
2023-04-26T05:09:38.387Z,5.67
2023-04-26T05:10:38.412Z,5.90
2023-04-26T05:11:38.429Z,6.01
2023-04-26T05:12:38.452Z,6.15
2023-04-26T05:13:38.474Z,6.36
2023-04-26T05:14:38.490Z,6.48
2023-04-26T05:15:38.496Z,6.66
2023-04-26T05:16:38.632Z,6.67
2023-04-26T05:17:38.603Z,6.76
2023-04-26T05:18:38.587Z,6.87
2023-04-26T05:19:38.576Z,6.94
2023-04-26T05:20:38.601Z,7.06
2023-04-26T05:21:38.620Z,7.21
2023-04-26T05:22:38.646Z,7.46
2023-04-26T05:23:38.658Z,7.64
2023-04-26T05:24:38.676Z,7.74
2023-04-26T05:25:38.697Z,7.95
2023-04-26T05:26:38.714Z,8.08
2023-04-26T05:27:38.737Z,8.33
2023-04-26T05:28:38.753Z,8.37
2023-04-26T05:29:38.776Z,8.55
2023-04-26T05:30:38.795Z,8.47
2023-04-26T05:31:38.856Z,8.43
2023-04-26T05:32:38.867Z,8.38
2023-04-26T05:33:38.855Z,8.26
2023-04-26T05:34:38.875Z,8.22
2023-04-26T05:35:38.895Z,8.19
2023-04-26T05:36:38.927Z,8.25
2023-04-26T05:37:38.935Z,8.19
2023-04-26T05:38:38.952Z,8.25
2023-04-26T05:39:38.976Z,8.43
2023-04-26T05:40:38.996Z,8.53
2023-04-26T05:41:39.017Z,8.52
2023-04-26T05:42:39.038Z,8.58
2023-04-26T05:43:39.058Z,8.48
2023-04-26T05:44:39.079Z,8.50
2023-04-26T05:45:39.117Z,8.44
2023-04-26T05:46:39.132Z,8.41
2023-04-26T05:47:39.181Z,8.44
2023-04-26T05:48:39.161Z,8.53
2023-04-26T05:49:39.190Z,8.55
2023-04-26T05:50:40.054Z,8.73
2023-04-26T05:51:39.227Z,8.66
2023-04-26T05:52:39.297Z,8.70
2023-04-26T05:53:39.266Z,8.63
2023-04-26T05:54:39.292Z,8.52
2023-04-26T05:55:39.307Z,8.52
2023-04-26T05:56:39.418Z,8.48
2023-04-26T05:57:39.405Z,8.47
2023-04-26T05:58:39.398Z,8.45
2023-04-26T05:59:39.438Z,8.26
2023-04-26T06:00:39.414Z,8.33
2023-04-26T06:01:39.435Z,8.33
2023-04-26T06:02:39.519Z,8.23
2023-04-26T06:03:39.764Z,8.28
2023-04-26T06:04:39.597Z,8.22
2023-04-26T06:05:39.532Z,8.15
2023-04-26T06:06:39.536Z,8.10
2023-04-26T06:07:39.556Z,8.00
2023-04-26T06:08:39.583Z,7.90
2023-04-26T06:09:39.604Z,7.89
2023-04-26T06:10:39.635Z,7.85
2023-04-26T06:11:39.644Z,7.89
2023-04-26T06:12:39.664Z,7.83
2023-04-26T06:13:39.685Z,7.83
2023-04-26T06:14:39.710Z,7.87
2023-04-26T06:15:39.735Z,8.08
2023-04-26T06:16:41.160Z,8.23
2023-04-26T06:17:39.784Z,8.45
2023-04-26T06:18:39.793Z,8.55
2023-04-26T06:19:39.824Z,8.63
2023-04-26T06:20:39.837Z,8.70
2023-04-26T06:21:39.854Z,8.71
2023-04-26T06:22:39.876Z,8.73
2023-04-26T06:23:39.905Z,8.98
2023-04-26T06:24:39.936Z,9.15
2023-04-26T06:25:39.942Z,9.26
2023-04-26T06:26:39.974Z,9.42
2023-04-26T06:27:39.984Z,9.61
2023-04-26T06:28:42.215Z,9.84
2023-04-26T06:29:40.039Z,10.23
2023-04-26T06:30:40.113Z,10.61
2023-04-26T06:31:40.108Z,10.82
2023-04-26T06:32:40.106Z,10.91
2023-04-26T06:33:40.121Z,11.07
2023-04-26T06:34:40.143Z,11.06
2023-04-26T06:35:40.170Z,10.92
2023-04-26T06:36:40.194Z,10.68
2023-04-26T06:37:40.210Z,10.59
2023-04-26T06:38:40.235Z,10.48
2023-04-26T06:39:40.261Z,10.44
2023-04-26T06:40:40.327Z,10.40
2023-04-26T06:41:40.300Z,10.41
2023-04-26T06:42:40.451Z,10.53
2023-04-26T06:43:40.355Z,10.68
2023-04-26T06:44:40.370Z,10.51
2023-04-26T06:45:41.527Z,10.36
2023-04-26T06:46:40.449Z,10.51
2023-04-26T06:47:40.470Z,10.56
2023-04-26T06:48:40.482Z,10.56
2023-04-26T06:49:40.490Z,10.67
2023-04-26T06:50:40.542Z,10.81
2023-04-26T06:51:40.634Z,10.88
2023-04-26T06:52:40.564Z,10.92
2023-04-26T06:53:40.804Z,11.03
2023-04-26T06:54:53.722Z,11.21
2023-04-26T06:55:40.658Z,11.37
2023-04-26T06:56:40.705Z,11.47
2023-04-26T06:57:40.678Z,11.40
2023-04-26T06:58:40.702Z,11.37
2023-04-26T06:59:40.733Z,11.42
2023-04-26T07:00:40.760Z,11.49
2023-04-26T07:01:40.851Z,11.61
2023-04-26T07:02:40.873Z,11.47
2023-04-26T07:03:40.861Z,11.33
2023-04-26T07:04:41.344Z,11.10
2023-04-26T07:05:40.869Z,11.00
2023-04-26T07:06:40.904Z,10.86
2023-04-26T07:07:40.944Z,10.70
2023-04-26T07:08:40.945Z,10.45
2023-04-26T07:09:41.059Z,10.27
2023-04-26T07:10:40.995Z,10.20
2023-04-26T07:11:41.013Z,10.22
2023-04-26T07:12:41.036Z,10.26
2023-04-26T07:13:41.129Z,10.04
2023-04-26T07:14:41.091Z,10.08
2023-04-26T07:15:41.106Z,9.89
2023-04-26T07:16:41.317Z,9.89
2023-04-26T07:17:41.242Z,9.76
2023-04-26T07:18:41.182Z,9.61
2023-04-26T07:19:41.630Z,9.51
2023-04-26T07:20:41.213Z,9.40
2023-04-26T07:21:41.236Z,9.39
2023-04-26T07:22:41.259Z,9.42
2023-04-26T07:23:41.282Z,9.51
2023-04-26T07:24:41.301Z,9.57
2023-04-26T07:25:41.324Z,9.57
2023-04-26T07:26:41.350Z,9.43
2023-04-26T07:27:41.371Z,9.57
2023-04-26T07:28:41.392Z,9.60
2023-04-26T07:29:41.412Z,9.74
2023-04-26T07:30:41.433Z,9.83
2023-04-26T07:31:41.448Z,9.87
2023-04-26T07:32:41.547Z,10.09
2023-04-26T07:33:41.544Z,10.08
2023-04-26T07:34:41.526Z,10.18
2023-04-26T07:35:41.544Z,10.11
2023-04-26T07:36:41.564Z,10.14
2023-04-26T07:37:41.586Z,10.25
2023-04-26T07:38:41.614Z,10.27
2023-04-26T07:39:41.674Z,10.27
2023-04-26T07:40:41.650Z,10.32
2023-04-26T07:41:43.680Z,10.33
2023-04-26T07:42:41.703Z,10.23
2023-04-26T07:43:41.715Z,10.27
2023-04-26T07:44:41.759Z,10.32
2023-04-26T07:45:41.772Z,10.40
2023-04-26T07:46:41.782Z,10.63
2023-04-26T07:47:41.906Z,10.61
2023-04-26T07:48:41.827Z,10.73
2023-04-26T07:49:41.858Z,10.79
2023-04-26T07:50:41.872Z,10.92
2023-04-26T07:51:41.914Z,10.78
2023-04-26T07:52:41.920Z,10.76
2023-04-26T07:53:41.943Z,10.64
2023-04-26T07:54:41.961Z,10.56
2023-04-26T07:55:41.982Z,10.48
2023-04-26T07:56:42.006Z,10.56
2023-04-26T07:57:42.030Z,10.55
2023-04-26T07:58:42.052Z,10.64
2023-04-26T07:59:42.073Z,10.63
2023-04-26T08:00:42.265Z,10.78
2023-04-26T08:01:42.124Z,10.82
2023-04-26T08:02:44.479Z,10.88
2023-04-26T08:03:42.437Z,10.85
2023-04-26T08:04:42.332Z,10.92
2023-04-26T08:05:42.344Z,10.99
2023-04-26T08:06:42.229Z,11.06
2023-04-26T08:07:42.256Z,11.07
2023-04-26T08:08:42.287Z,11.02
2023-04-26T08:09:42.295Z,10.89
2023-04-26T08:10:42.318Z,10.63
2023-04-26T08:11:42.438Z,10.63
2023-04-26T08:12:42.367Z,10.41
2023-04-26T08:13:42.396Z,10.29
2023-04-26T08:14:42.407Z,10.25
2023-04-26T08:15:42.441Z,10.17
2023-04-26T08:16:42.585Z,10.18
2023-04-26T08:17:42.571Z,10.14
2023-04-26T08:18:44.086Z,10.05
2023-04-26T08:19:42.524Z,10.11
2023-04-26T08:20:42.548Z,10.22
2023-04-26T08:21:42.568Z,10.29
2023-04-26T08:22:42.594Z,10.27
2023-04-26T08:23:42.611Z,10.36
2023-04-26T08:24:42.636Z,10.29
2023-04-26T08:25:42.654Z,10.22
2023-04-26T08:26:42.684Z,10.09
2023-04-26T08:27:42.695Z,10.04
2023-04-26T08:28:42.735Z,10.02
2023-04-26T08:29:42.747Z,10.05
2023-04-26T08:30:42.788Z,10.02
2023-04-26T08:31:42.810Z,9.94
2023-04-26T08:32:42.969Z,10.04
2023-04-26T08:33:42.837Z,9.99
2023-04-26T08:34:42.857Z,10.02
2023-04-26T08:35:42.880Z,9.99
2023-04-26T08:36:42.904Z,9.99
2023-04-26T08:37:42.920Z,9.87
2023-04-26T08:38:42.947Z,9.74
2023-04-26T08:39:42.972Z,9.65
2023-04-26T08:40:42.990Z,9.64
2023-04-26T08:41:43.020Z,9.58
2023-04-26T08:42:43.033Z,9.53
2023-04-26T08:43:43.056Z,9.61
2023-04-26T08:44:43.078Z,9.57
2023-04-26T08:45:43.098Z,9.50
2023-04-26T08:46:43.212Z,9.47
2023-04-26T08:47:43.232Z,9.40
2023-04-26T08:48:43.250Z,9.43
2023-04-26T08:49:43.205Z,9.50
2023-04-26T08:50:43.208Z,9.43
2023-04-26T08:51:43.226Z,9.57
2023-04-26T08:52:43.256Z,9.50
2023-04-26T08:53:43.279Z,9.61
2023-04-26T08:54:43.304Z,9.61
2023-04-26T08:55:43.317Z,9.64
2023-04-26T08:56:43.344Z,9.64
2023-04-26T08:57:43.363Z,9.78
2023-04-26T08:58:43.382Z,9.79
2023-04-26T08:59:43.410Z,9.91
2023-04-26T09:00:43.430Z,9.96
2023-04-26T09:01:43.489Z,9.97
2023-04-26T09:02:43.547Z,10.01
2023-04-26T09:03:43.676Z,10.12
2023-04-26T09:04:43.683Z,10.07
2023-04-26T09:05:43.539Z,10.15
2023-04-26T09:06:43.558Z,10.20
2023-04-26T09:07:43.583Z,10.23
2023-04-26T09:08:43.606Z,10.30
2023-04-26T09:09:43.634Z,10.30
2023-04-26T09:10:43.649Z,10.44
2023-04-26T09:11:43.672Z,10.52
2023-04-26T09:12:43.705Z,10.61
2023-04-26T09:13:43.717Z,10.73
2023-04-26T09:14:43.747Z,10.70
2023-04-26T09:15:43.793Z,10.78
2023-04-26T09:16:43.825Z,10.78
2023-04-26T09:17:43.846Z,10.89
2023-04-26T09:18:43.830Z,10.85
2023-04-26T09:19:43.858Z,11.00
2023-04-26T09:20:44.093Z,10.91
2023-04-26T09:21:43.906Z,11.14
2023-04-26T09:22:43.925Z,11.40
2023-04-26T09:23:43.957Z,11.39
2023-04-26T09:24:43.966Z,11.49
2023-04-26T09:25:43.992Z,11.43
2023-04-26T09:26:44.020Z,11.49
2023-04-26T09:27:44.041Z,11.44
2023-04-26T09:28:44.064Z,11.51
2023-04-26T09:29:44.083Z,11.55
2023-04-26T09:30:44.110Z,11.51
2023-04-26T09:31:45.277Z,11.43
2023-04-26T09:32:44.213Z,11.51
2023-04-26T09:33:44.178Z,11.39
2023-04-26T09:34:44.216Z,11.33
2023-04-26T09:35:44.228Z,11.25
2023-04-26T09:36:44.258Z,11.17
2023-04-26T09:37:57.298Z,11.07
2023-04-26T09:38:44.812Z,11.09
2023-04-26T09:39:44.318Z,11.15
2023-04-26T09:40:44.350Z,11.15
2023-04-26T09:41:44.365Z,11.09
2023-04-26T09:42:44.409Z,11.15
2023-04-26T09:43:44.503Z,11.11
2023-04-26T09:44:44.436Z,11.21
2023-04-26T09:45:44.465Z,11.24
2023-04-26T09:46:44.524Z,11.27
2023-04-26T09:47:44.544Z,11.15
2023-04-26T09:48:45.566Z,11.15
2023-04-26T09:49:44.551Z,11.07
2023-04-26T09:50:44.572Z,11.00
2023-04-26T09:51:44.598Z,10.96
2023-04-26T09:52:44.702Z,10.84
2023-04-26T09:53:44.638Z,10.81
2023-04-26T09:54:44.668Z,10.79
2023-04-26T09:55:44.686Z,10.88
2023-04-26T09:56:44.709Z,11.17
2023-04-26T09:57:44.741Z,11.37
2023-04-26T09:58:44.754Z,11.58
2023-04-26T09:59:44.776Z,11.75
2023-04-26T10:00:44.828Z,11.90
2023-04-26T10:01:44.834Z,11.99
2023-04-26T10:02:44.949Z,12.05
2023-04-26T10:03:45.140Z,12.02
2023-04-26T10:04:44.927Z,12.13
2023-04-26T10:05:44.922Z,12.12
2023-04-26T10:06:44.994Z,12.04
2023-04-26T10:07:44.978Z,12.17
2023-04-26T10:08:45.023Z,12.16
2023-04-26T10:09:45.028Z,12.04
2023-04-26T10:10:45.041Z,11.96
2023-04-26T10:11:45.062Z,11.96
2023-04-26T10:12:45.088Z,11.90
2023-04-26T10:13:45.115Z,11.88
2023-04-26T10:14:45.146Z,11.76
2023-04-26T10:15:45.162Z,11.67
2023-04-26T10:16:45.214Z,11.61
2023-04-26T10:17:45.229Z,11.76
2023-04-26T10:18:45.235Z,11.88
2023-04-26T10:19:45.257Z,11.86
2023-04-26T10:20:45.278Z,11.83
2023-04-26T10:21:45.307Z,11.90
2023-04-26T10:22:45.339Z,11.85
2023-04-26T10:23:45.362Z,11.79
2023-04-26T10:24:45.377Z,11.88
2023-04-26T10:25:45.400Z,11.78
2023-04-26T10:26:45.424Z,11.69
2023-04-26T10:27:45.461Z,11.76
2023-04-26T10:28:45.482Z,11.78
2023-04-26T10:29:45.493Z,11.82
2023-04-26T10:30:45.522Z,11.88
2023-04-26T10:31:45.576Z,11.88
2023-04-26T10:32:45.601Z,11.78
2023-04-26T10:33:45.588Z,11.76
2023-04-26T10:34:45.613Z,11.91
2023-04-26T10:35:45.638Z,11.95
2023-04-26T10:36:45.664Z,12.04
2023-04-26T10:37:45.682Z,12.23
2023-04-26T10:38:45.711Z,12.24
2023-04-26T10:39:45.773Z,12.31
2023-04-26T10:40:45.876Z,12.42
2023-04-26T10:41:45.790Z,12.46
2023-04-26T10:42:45.804Z,12.41
2023-04-26T10:43:45.842Z,12.47
2023-04-26T10:44:45.902Z,12.60
2023-04-26T10:45:45.902Z,12.82
2023-04-26T10:46:45.904Z,13.12
2023-04-26T10:47:45.986Z,13.20
2023-04-26T10:48:45.951Z,13.57
2023-04-26T10:49:45.977Z,13.60
2023-04-26T10:50:46.003Z,13.48
2023-04-26T10:51:46.033Z,13.33
2023-04-26T10:52:46.045Z,13.38
2023-04-26T10:53:46.088Z,13.36
2023-04-26T10:54:46.099Z,13.23
2023-04-26T10:55:46.128Z,13.23
2023-04-26T10:56:46.149Z,13.05
2023-04-26T10:57:46.176Z,12.97
2023-04-26T10:58:46.199Z,12.89
2023-04-26T10:59:54.295Z,12.74
2023-04-26T11:00:46.257Z,12.71
2023-04-26T11:01:46.404Z,12.72
2023-04-26T11:02:46.353Z,12.68
2023-04-26T11:03:46.577Z,12.52
2023-04-26T11:04:46.388Z,12.37
2023-04-26T11:05:46.369Z,12.27
2023-04-26T11:06:46.392Z,12.17
2023-04-26T11:07:46.419Z,11.95
2023-04-26T11:08:46.446Z,11.88
2023-04-26T11:09:46.481Z,11.76
2023-04-26T11:10:46.486Z,11.65
2023-04-26T11:11:46.509Z,11.43
2023-04-26T11:12:46.540Z,11.47
2023-04-26T11:13:46.558Z,11.40
2023-04-26T11:14:46.592Z,11.36
2023-04-26T11:15:46.623Z,11.42
2023-04-26T11:16:46.632Z,11.36
2023-04-26T11:17:46.729Z,11.36
2023-04-26T11:18:46.698Z,11.33
2023-04-26T11:19:46.702Z,11.11
2023-04-26T11:20:46.722Z,11.02
2023-04-26T11:21:46.753Z,11.04
2023-04-26T11:22:46.759Z,11.07
2023-04-26T11:23:46.795Z,11.07
2023-04-26T11:24:46.812Z,11.10
2023-04-26T11:25:46.836Z,11.11
2023-04-26T11:26:46.858Z,11.18
2023-04-26T11:27:46.892Z,11.27
2023-04-26T11:28:46.932Z,11.24
2023-04-26T11:29:46.937Z,11.42
2023-04-26T11:30:46.945Z,11.21
2023-04-26T11:31:47.015Z,11.33
2023-04-26T11:32:47.030Z,11.40
2023-04-26T11:33:49.951Z,11.55
2023-04-26T11:34:47.042Z,11.47
2023-04-26T11:35:47.067Z,11.72
2023-04-26T11:36:47.085Z,11.82
2023-04-26T11:37:47.110Z,11.91
2023-04-26T11:38:47.157Z,12.12
2023-04-26T11:39:47.158Z,12.13
2023-04-26T11:40:47.180Z,12.27
2023-04-26T11:41:47.202Z,12.28
2023-04-26T11:42:47.226Z,12.28
2023-04-26T11:43:47.274Z,12.50
2023-04-26T11:44:47.940Z,12.53
2023-04-26T11:45:47.295Z,12.64
2023-04-26T11:46:47.368Z,12.53
2023-04-26T11:47:47.418Z,12.54
2023-04-26T11:48:47.369Z,12.64
2023-04-26T11:49:47.404Z,12.62
2023-04-26T11:50:47.416Z,12.57
2023-04-26T11:51:47.440Z,12.59
2023-04-26T11:52:47.472Z,12.56
2023-04-26T11:53:47.489Z,12.46
2023-04-26T11:54:47.523Z,12.49
2023-04-26T11:55:47.533Z,12.38
2023-04-26T11:56:47.554Z,12.27
2023-04-26T11:57:47.590Z,12.17
2023-04-26T11:58:47.606Z,12.10
2023-04-26T11:59:47.628Z,11.91
2023-04-26T12:00:47.816Z,11.88
2023-04-26T12:01:47.710Z,11.76
2023-04-26T12:02:47.844Z,11.70
2023-04-26T12:03:47.900Z,11.60
2023-04-26T12:04:48.067Z,11.54
2023-04-26T12:05:47.778Z,11.47
2023-04-26T12:06:47.798Z,11.39
2023-04-26T12:07:47.829Z,11.33
2023-04-26T12:08:47.854Z,11.35
2023-04-26T12:09:47.864Z,11.22
2023-04-26T12:10:47.887Z,11.19
2023-04-26T12:11:47.908Z,11.14
2023-04-26T12:12:47.936Z,11.14
2023-04-26T12:13:47.958Z,11.02
2023-04-26T12:14:47.974Z,10.96
2023-04-26T12:15:48.020Z,10.99
2023-04-26T12:16:48.094Z,10.94
2023-04-26T12:17:48.082Z,10.86
2023-04-26T12:18:48.070Z,10.94
2023-04-26T12:19:48.110Z,10.99
2023-04-26T12:20:48.112Z,11.03
2023-04-26T12:21:48.148Z,11.00
2023-04-26T12:22:48.154Z,10.97
2023-04-26T12:23:48.205Z,10.94
2023-04-26T12:24:48.219Z,11.00
2023-04-26T12:25:48.228Z,11.07
2023-04-26T12:26:48.250Z,10.99
2023-04-26T12:27:48.278Z,11.04
2023-04-26T12:28:48.302Z,11.09
2023-04-26T12:29:48.324Z,11.15
2023-04-26T12:30:48.339Z,11.15
2023-04-26T12:31:48.411Z,11.18
2023-04-26T12:32:48.667Z,11.07
2023-04-26T12:33:48.410Z,11.15
2023-04-26T12:34:48.431Z,11.17
2023-04-26T12:35:48.454Z,11.15
2023-04-26T12:36:48.512Z,11.21
2023-04-26T12:37:48.512Z,11.18
2023-04-26T12:38:48.527Z,11.27
2023-04-26T12:39:48.549Z,11.36
2023-04-26T12:40:48.566Z,11.33
2023-04-26T12:41:48.589Z,11.40
2023-04-26T12:42:48.618Z,11.37
2023-04-26T12:43:48.637Z,11.44
2023-04-26T12:44:48.653Z,11.47
2023-04-26T12:45:48.711Z,11.51
2023-04-26T12:46:48.809Z,11.51
2023-04-26T12:47:48.775Z,11.61
2023-04-26T12:48:48.751Z,11.58
2023-04-26T12:49:48.820Z,11.55
2023-04-26T12:50:51.079Z,11.60
2023-04-26T12:51:48.824Z,11.67
2023-04-26T12:52:48.838Z,11.69
2023-04-26T12:53:48.865Z,11.76
2023-04-26T12:54:48.894Z,11.90
2023-04-26T12:55:48.927Z,11.83
2023-04-26T12:56:48.938Z,12.01
2023-04-26T12:57:48.967Z,12.09
2023-04-26T12:58:48.986Z,12.10
2023-04-26T12:59:49.035Z,12.16
2023-04-26T13:00:49.034Z,12.31
2023-04-26T13:01:49.114Z,12.24
2023-04-26T13:02:49.249Z,12.20
2023-04-26T13:03:49.255Z,12.35
2023-04-26T13:04:49.263Z,12.31
2023-04-26T13:05:49.170Z,12.32
2023-04-26T13:06:49.190Z,12.32